Time;durP1;ratioP1;P1;durP2;ratioP2;P2;SDS_P1;SDS_P2;PMS_P1;PMS_P2;Temp;Humidity;BMP_temperature;BMP_pressure;BME280_temperature;BME280_humidity;BME280_pressure;Samples;Min_cycle;Max_cycle;Signal;HPM_P1;HPM_P2
2021/08/13 00:01:59;;;;;;;10.05;7.28;;;18.30;99.90;;;;;;5060335;28;20055;-62
2021/08/13 00:04:25;;;;;;;9.60;6.97;;;18.30;99.90;;;;;;5060242;28;20075;-62
2021/08/13 00:06:50;;;;;;;9.70;6.90;;;18.20;99.90;;;;;;5060927;28;20044;-62
2021/08/13 00:09:17;;;;;;;10.65;7.25;;;18.20;99.90;;;;;;5059719;28;20052;-62
2021/08/13 00:11:43;;;;;;;9.52;7.20;;;18.10;99.90;;;;;;5064936;28;20049;-62
2021/08/13 00:14:09;;;;;;;10.07;7.05;;;18.10;99.90;;;;;;5061440;28;20052;-62
2021/08/13 00:16:36;;;;;;;8.32;6.70;;;18.00;99.90;;;;;;5066598;28;20045;-62
2021/08/13 00:19:02;;;;;;;9.65;6.80;;;18.00;99.90;;;;;;5065398;28;20045;-62
2021/08/13 00:21:29;;;;;;;10.73;7.65;;;18.00;99.90;;;;;;5059061;28;20069;-62
2021/08/13 00:23:55;;;;;;;7.50;6.05;;;17.90;99.90;;;;;;5060282;28;20075;-62
2021/08/13 00:26:21;;;;;;;10.25;7.13;;;17.80;99.90;;;;;;5073155;28;20496;-62
2021/08/13 00:28:47;;;;;;;10.55;7.40;;;17.80;99.90;;;;;;5058304;28;20045;-62
2021/08/13 00:31:13;;;;;;;9.10;7.38;;;17.80;99.90;;;;;;5064909;28;20040;-62
2021/08/13 00:33:39;;;;;;;10.65;7.60;;;17.80;99.90;;;;;;5073185;28;20065;-62
2021/08/13 00:36:05;;;;;;;10.73;7.55;;;17.70;99.90;;;;;;5071185;28;20049;-62
2021/08/13 00:38:30;;;;;;;10.43;7.40;;;17.70;99.90;;;;;;5081013;28;20052;-62
2021/08/13 00:40:56;;;;;;;13.02;7.28;;;17.60;99.90;;;;;;5066785;28;20044;-62
2021/08/13 00:43:22;;;;;;;10.77;7.93;;;17.60;99.90;;;;;;5078635;28;20510;-62
2021/08/13 00:45:48;;;;;;;10.18;7.65;;;17.60;99.90;;;;;;5066057;28;20045;-62
2021/08/13 00:48:13;;;;;;;10.15;8.45;;;17.50;99.90;;;;;;5079000;28;20040;-62
2021/08/13 00:50:39;;;;;;;12.18;8.50;;;17.50;99.90;;;;;;5062561;28;20044;-62
2021/08/13 00:53:08;;;;;;;11.02;8.55;;;17.40;99.90;;;;;;5078305;28;20072;-62
2021/08/13 00:55:34;;;;;;;10.35;8.30;;;17.40;99.90;;;;;;5054718;28;20044;-62
2021/08/13 00:58:01;;;;;;;9.00;7.43;;;17.30;99.90;;;;;;5073627;28;20044;-62
2021/08/13 01:00:27;;;;;;;12.85;8.55;;;17.30;99.90;;;;;;5058644;28;20104;-62
2021/08/13 01:02:52;;;;;;;11.18;9.00;;;17.20;99.90;;;;;;5067701;28;20123;-62
2021/08/13 01:05:19;;;;;;;11.10;8.15;;;17.20;99.90;;;;;;5054763;28;20173;-62
2021/08/13 01:07:45;;;;;;;9.27;7.97;;;17.20;99.90;;;;;;5067442;28;20492;-62
2021/08/13 01:10:12;;;;;;;11.30;8.13;;;17.10;99.90;;;;;;5056989;28;20084;-62
2021/08/13 01:13:08;;;;;;;10.88;9.25;;;17.10;99.90;;;;;;5070440;28;20040;-62
2021/08/13 01:15:37;;;;;;;12.27;8.75;;;17.00;99.90;;;;;;5069525;28;20480;-62
2021/08/13 01:18:09;;;;;;;12.80;9.20;;;17.00;99.90;;;;;;5059692;28;20526;-62
2021/08/13 01:20:57;;;;;;;14.23;11.00;;;17.00;99.90;;;;;;5078055;28;20040;-62
2021/08/13 01:23:32;;;;;;;11.32;9.85;;;17.00;99.90;;;;;;5075602;28;20291;-62
2021/08/13 01:26:01;;;;;;;14.15;9.93;;;17.00;99.90;;;;;;5079895;28;20045;-62
2021/08/13 01:29:05;;;;;;;14.73;10.85;;;17.00;99.90;;;;;;5065521;28;20044;-62
2021/08/13 01:32:06;;;;;;;14.85;10.57;;;16.90;99.90;;;;;;5050752;28;20080;-62
2021/08/13 01:34:34;;;;;;;13.70;10.80;;;16.90;99.90;;;;;;5073894;28;20048;-62
2021/08/13 01:37:01;;;;;;;14.73;10.95;;;16.80;99.90;;;;;;5066139;28;20045;-62
2021/08/13 01:39:30;;;;;;;13.60;10.88;;;16.80;99.90;;;;;;5060247;28;20056;-62
2021/08/13 01:41:58;;;;;;;16.92;11.00;;;16.80;99.90;;;;;;5068159;28;20052;-62
2021/08/13 01:44:25;;;;;;;16.00;11.02;;;16.80;99.90;;;;;;5065118;28;20045;-62
2021/08/13 01:46:51;;;;;;;17.17;11.15;;;16.80;99.90;;;;;;5070669;28;20501;-62
2021/08/13 01:49:18;;;;;;;16.50;11.70;;;16.70;99.90;;;;;;5059978;28;20041;-62
2021/08/13 01:51:46;;;;;;;14.25;11.45;;;16.70;99.90;;;;;;5071291;28;20053;-62
2021/08/13 01:54:12;;;;;;;15.73;12.05;;;16.70;99.90;;;;;;5057992;28;20053;-62
2021/08/13 01:56:39;;;;;;;17.47;12.17;;;16.70;99.90;;;;;;5071905;28;20045;-62
2021/08/13 01:59:05;;;;;;;15.52;11.48;;;16.70;99.90;;;;;;5056811;28;20312;-62
2021/08/13 02:01:31;;;;;;;14.80;11.80;;;16.70;99.90;;;;;;5064901;28;20055;-62
2021/08/13 02:04:01;;;;;;;16.35;12.25;;;16.70;99.90;;;;;;5069877;28;20385;-62
2021/08/13 02:06:30;;;;;;;18.88;12.45;;;16.60;99.90;;;;;;5079621;28;20045;-62
2021/08/13 02:08:56;;;;;;;16.38;12.55;;;16.60;99.90;;;;;;5077926;28;20049;-62
2021/08/13 02:11:24;;;;;;;15.25;10.95;;;16.50;99.90;;;;;;5067082;28;20041;-62
2021/08/13 02:13:50;;;;;;;14.85;11.75;;;16.50;99.90;;;;;;5057687;28;20052;-62
2021/08/13 02:16:21;;;;;;;17.27;11.27;;;16.50;99.90;;;;;;5065558;28;20060;-62
2021/08/13 02:18:55;;;;;;;15.18;11.95;;;16.50;99.90;;;;;;5066377;28;20045;-62
2021/08/13 02:21:23;;;;;;;18.35;12.57;;;16.40;99.90;;;;;;5067274;28;20066;-62
2021/08/13 02:23:49;;;;;;;;;;;16.50;99.90;;;;;;5071078;28;20098;-62
2021/08/13 02:26:15;;;;;;;16.05;12.13;;;16.50;99.90;;;;;;5081510;28;20376;-62
2021/08/13 02:28:41;;;;;;;14.20;10.73;;;16.40;99.90;;;;;;5068462;28;20053;-62
2021/08/13 02:31:06;;;;;;;16.60;11.88;;;16.50;99.90;;;;;;5080952;28;20111;-62
2021/08/13 02:33:32;;;;;;;16.02;11.35;;;16.50;99.90;;;;;;5065407;28;20060;-62
2021/08/13 02:36:09;;;;;;;16.20;11.23;;;16.50;99.90;;;;;;5074921;28;20041;-62
2021/08/13 02:38:53;;;;;;;18.60;12.57;;;16.50;99.90;;;;;;5064950;28;20123;-62
2021/08/13 02:41:21;;;;;;;17.25;13.23;;;16.40;99.90;;;;;;5078187;28;20047;-62
2021/08/13 02:43:51;;;;;;;17.80;12.93;;;16.50;99.90;;;;;;5063744;28;20055;-62
2021/08/13 02:46:20;;;;;;;16.08;12.40;;;16.60;99.90;;;;;;5076954;28;20047;-62
2021/08/13 02:48:48;;;;;;;19.05;13.35;;;16.70;99.90;;;;;;5052125;28;20049;-62
2021/08/13 02:51:17;;;;;;;16.52;12.30;;;16.70;99.90;;;;;;5072942;28;20397;-62
2021/08/13 02:53:47;;;;;;;18.98;12.77;;;16.70;99.90;;;;;;5072001;28;20069;-62
2021/08/13 02:56:17;;;;;;;18.05;13.50;;;16.70;99.90;;;;;;5064551;28;20103;-62
2021/08/13 02:58:52;;;;;;;18.63;13.35;;;16.60;99.90;;;;;;5063760;28;20128;-62
2021/08/13 03:01:24;;;;;;;18.98;13.02;;;16.60;99.90;;;;;;5072557;28;20047;-62
2021/08/13 03:03:52;;;;;;;18.00;13.77;;;16.60;99.90;;;;;;5069922;28;20051;-62
2021/08/13 03:06:20;;;;;;;18.45;13.77;;;16.60;99.90;;;;;;5069376;28;20137;-62
2021/08/13 03:08:48;;;;;;;20.80;14.50;;;16.50;99.90;;;;;;5069808;28;20090;-62
2021/08/13 03:11:15;;;;;;;;;;;16.50;99.90;;;;;;5070524;28;20040;-62
2021/08/13 03:13:43;;;;;;;18.95;13.55;;;16.50;99.90;;;;;;5067815;28;19977;-62
2021/08/13 03:16:10;;;;;;;18.17;13.25;;;16.50;99.90;;;;;;5068024;28;20044;-62
2021/08/13 03:18:39;;;;;;;22.00;14.93;;;16.50;99.90;;;;;;5070084;28;20124;-62
2021/08/13 03:21:06;;;;;;;18.70;13.77;;;16.40;99.90;;;;;;5058493;28;20040;-62
2021/08/13 03:23:32;;;;;;;17.42;13.50;;;16.50;99.90;;;;;;5074285;28;20052;-62
2021/08/13 03:25:59;;;;;;;28.30;16.42;;;16.50;99.90;;;;;;5059438;28;20067;-62
2021/08/13 03:28:25;;;;;;;18.15;14.30;;;16.50;99.90;;;;;;5073026;28;20048;-62
2021/08/13 03:30:51;;;;;;;26.95;15.68;;;16.40;99.90;;;;;;5057442;28;20049;-62
2021/08/13 03:33:17;;;;;;;21.42;15.13;;;16.40;99.90;;;;;;5071148;28;20047;-62
2021/08/13 03:35:44;;;;;;;19.00;14.25;;;16.50;99.90;;;;;;5066560;28;20052;-62
2021/08/13 03:38:10;;;;;;;22.17;16.20;;;16.30;99.90;;;;;;5062957;28;20092;-62
2021/08/13 03:40:36;;;;;;;22.85;15.48;;;16.30;99.90;;;;;;5077638;28;20071;-62
2021/08/13 03:43:03;;;;;;;22.70;14.48;;;16.30;99.90;;;;;;5068099;28;20036;-62
2021/08/13 03:45:29;;;;;;;23.65;15.88;;;16.30;99.90;;;;;;5081767;28;20094;-62
2021/08/13 03:47:55;;;;;;;20.63;15.40;;;16.30;99.90;;;;;;5065089;28;20480;-62
2021/08/13 03:50:20;;;;;;;26.35;16.15;;;16.20;99.90;;;;;;5080474;28;20108;-62
2021/08/13 03:52:46;;;;;;;24.45;16.30;;;16.20;99.90;;;;;;5074495;28;20075;-62
2021/08/13 03:55:13;;;;;;;24.70;17.27;;;16.20;99.90;;;;;;5079115;28;20136;-62
2021/08/13 03:57:42;;;;;;;27.45;15.73;;;16.20;99.90;;;;;;5065421;28;20053;-62
2021/08/13 04:00:10;;;;;;;24.88;16.38;;;16.20;99.90;;;;;;5076860;28;20571;-62
2021/08/13 04:02:36;;;;;;;28.67;17.17;;;16.20;99.90;;;;;;5067319;28;20057;-61
2021/08/13 04:05:02;;;;;;;28.60;17.48;;;16.20;99.90;;;;;;5062866;28;20044;-62
2021/08/13 04:07:28;;;;;;;23.80;16.60;;;16.20;99.90;;;;;;5068778;28;20042;-62
2021/08/13 04:09:54;;;;;;;26.17;17.92;;;16.10;99.90;;;;;;5058060;28;20057;-62
2021/08/13 04:12:20;;;;;;;28.58;18.92;;;16.20;99.90;;;;;;5072035;28;20041;-62
2021/08/13 04:14:46;;;;;;;26.60;18.17;;;16.20;99.90;;;;;;5061465;28;20045;-62
2021/08/13 04:17:11;;;;;;;21.15;16.00;;;16.20;99.90;;;;;;5076622;28;20049;-62
2021/08/13 04:19:37;;;;;;;25.42;16.65;;;16.20;99.90;;;;;;5064074;28;20041;-62
2021/08/13 04:22:05;;;;;;;25.65;18.63;;;16.20;99.90;;;;;;5064077;28;20045;-62
2021/08/13 04:24:33;;;;;;;23.77;17.77;;;16.20;99.90;;;;;;5050463;28;20056;-62
2021/08/13 04:27:03;;;;;;;23.60;17.20;;;16.20;99.90;;;;;;5062669;28;20109;-62
2021/08/13 04:29:28;;;;;;;26.77;18.17;;;16.20;99.90;;;;;;5077063;28;20071;-62
2021/08/13 04:31:54;;;;;;;23.60;17.13;;;16.20;99.90;;;;;;5061910;28;20037;-62
2021/08/13 04:34:21;;;;;;;27.45;18.52;;;16.20;99.90;;;;;;5075428;28;20036;-62
2021/08/13 04:36:47;;;;;;;30.70;17.83;;;16.20;99.90;;;;;;5059760;28;20052;-62
2021/08/13 04:39:15;;;;;;;24.23;17.63;;;16.20;99.90;;;;;;5073832;28;20056;-62
2021/08/13 04:41:41;;;;;;;29.92;18.50;;;16.20;99.90;;;;;;5059294;28;20048;-62
2021/08/13 04:44:07;;;;;;;25.38;18.60;;;16.20;99.90;;;;;;5071261;28;20053;-62
2021/08/13 04:46:35;;;;;;;27.52;19.00;;;16.20;99.90;;;;;;5064559;28;20064;-62
2021/08/13 04:49:02;;;;;;;29.42;18.08;;;16.30;99.90;;;;;;5077524;28;20074;-62
2021/08/13 04:51:28;;;;;;;25.38;18.67;;;16.30;99.90;;;;;;5077917;28;20044;-62
2021/08/13 04:53:55;;;;;;;29.05;18.08;;;16.30;99.90;;;;;;5067091;28;20064;-62
2021/08/13 04:56:21;;;;;;;32.15;19.05;;;16.30;99.90;;;;;;5081605;28;20080;-62
2021/08/13 04:58:47;;;;;;;29.90;18.45;;;16.20;99.90;;;;;;5066996;28;20393;-62
2021/08/13 05:01:15;;;;;;;24.90;18.13;;;16.30;99.90;;;;;;5079681;28;20051;-62
2021/08/13 05:03:40;;;;;;;27.55;18.08;;;16.30;99.90;;;;;;5065245;28;20067;-62
2021/08/13 05:06:06;;;;;;;30.70;20.17;;;16.30;99.90;;;;;;5078201;28;20484;-62
2021/08/13 05:08:34;;;;;;;22.55;17.08;;;16.40;99.90;;;;;;5063883;28;20507;-62
2021/08/13 05:11:00;;;;;;;34.88;19.83;;;16.40;99.90;;;;;;5076940;28;20070;-62
2021/08/13 05:13:29;;;;;;;26.63;19.52;;;16.50;99.90;;;;;;5062180;28;20040;-62
2021/08/13 05:15:54;;;;;;;30.80;21.25;;;16.50;99.90;;;;;;5066017;28;20049;-62
2021/08/13 05:18:21;;;;;;;28.20;17.67;;;16.60;99.90;;;;;;5064750;28;20041;-62
2021/08/13 05:20:46;;;;;;;28.38;20.30;;;16.60;99.90;;;;;;5058608;28;20635;-62
2021/08/13 05:23:12;;;;;;;27.42;19.65;;;16.70;99.90;;;;;;5079409;28;20044;-62
2021/08/13 05:25:38;;;;;;;29.35;19.63;;;16.70;99.90;;;;;;5064454;28;20043;-62
2021/08/13 05:28:25;;;;;;;29.48;18.95;;;16.80;99.90;;;;;;5077130;28;20079;-62
2021/08/13 05:30:50;;;;;;;27.88;19.73;;;16.90;99.90;;;;;;5062458;28;20057;-62
2021/08/13 05:33:16;;;;;;;28.90;19.85;;;17.00;99.90;;;;;;5068840;28;20412;-62
2021/08/13 05:35:46;;;;;;;28.50;19.25;;;17.00;99.90;;;;;;5060605;28;20049;-62
2021/08/13 05:38:12;;;;;;;29.45;21.75;;;17.10;99.90;;;;;;5067551;28;20043;-62
2021/08/13 05:40:42;;;;;;;33.65;19.30;;;17.20;99.90;;;;;;5054429;28;20370;-62
2021/08/13 05:43:08;;;;;;;29.20;20.70;;;17.20;99.90;;;;;;5072242;28;20044;-62
2021/08/13 05:45:34;;;;;;;28.17;20.67;;;17.20;99.90;;;;;;5063069;28;20049;-62
2021/08/13 05:47:59;;;;;;;31.38;20.42;;;17.30;99.90;;;;;;5058195;28;20174;-62
2021/08/13 05:50:25;;;;;;;26.48;19.63;;;17.40;99.90;;;;;;5065598;28;20045;-62
2021/08/13 05:52:51;;;;;;;26.50;19.77;;;17.40;99.90;;;;;;5061465;28;20049;-62
2021/08/13 05:55:17;;;;;;;27.90;19.42;;;17.50;99.90;;;;;;5069004;28;20049;-62
2021/08/13 05:57:44;;;;;;;35.75;18.83;;;17.50;99.90;;;;;;5057561;28;20071;-62
2021/08/13 06:00:10;;;;;;;26.30;18.08;;;17.60;99.90;;;;;;5076546;28;20101;-62
2021/08/13 06:02:36;;;;;;;26.38;19.25;;;17.60;99.90;;;;;;5058184;28;20050;-62
2021/08/13 06:05:02;;;;;;;32.45;20.20;;;17.70;99.90;;;;;;5076681;28;20075;-62
2021/08/13 06:07:28;;;;;;;27.00;18.35;;;17.80;99.90;;;;;;5074205;28;20061;-62
2021/08/13 06:09:54;;;;;;;22.92;17.88;;;17.90;99.90;;;;;;5071706;28;20045;-62
2021/08/13 06:12:21;;;;;;;23.98;18.50;;;18.10;99.90;;;;;;5077644;28;20045;-62
2021/08/13 06:14:47;;;;;;;23.27;17.90;;;18.10;99.90;;;;;;5066663;28;21746;-62
2021/08/13 06:17:13;;;;;;;20.92;16.85;;;18.20;99.90;;;;;;5079548;28;20041;-62
2021/08/13 06:19:38;;;;;;;24.55;15.95;;;18.30;99.90;;;;;;5057299;28;20071;-62
2021/08/13 06:22:04;;;;;;;25.30;17.65;;;18.20;99.90;;;;;;5061281;28;20049;-62
2021/08/13 06:24:30;;;;;;;20.42;15.85;;;18.30;99.90;;;;;;5055926;28;20043;-62
2021/08/13 06:26:57;;;;;;;25.13;17.43;;;18.30;99.90;;;;;;5068868;28;20052;-62
2021/08/13 06:29:23;;;;;;;24.02;17.08;;;18.30;99.90;;;;;;5080516;28;20071;-62
2021/08/13 06:31:49;;;;;;;23.25;16.60;;;18.40;99.90;;;;;;5066127;28;20044;-62
2021/08/13 06:34:19;;;;;;;23.33;16.58;;;18.50;99.90;;;;;;5079392;28;20104;-62
2021/08/13 06:36:45;;;;;;;23.90;16.88;;;18.60;99.90;;;;;;5063841;28;20121;-62
2021/08/13 06:39:11;;;;;;;24.27;16.83;;;18.60;99.90;;;;;;5078239;28;20052;-62
2021/08/13 06:41:37;;;;;;;21.73;16.88;;;18.70;99.90;;;;;;5062961;28;20051;-62
2021/08/13 06:44:03;;;;;;;24.58;16.50;;;18.70;99.90;;;;;;5063201;28;20106;-62
2021/08/13 06:46:29;;;;;;;22.45;16.10;;;18.80;99.90;;;;;;5056820;28;20036;-62
2021/08/13 06:48:55;;;;;;;21.90;16.58;;;18.80;99.90;;;;;;5055005;28;20049;-62
2021/08/13 06:51:21;;;;;;;23.63;15.48;;;18.80;99.90;;;;;;5058812;28;20075;-62
2021/08/13 06:53:47;;;;;;;22.38;16.27;;;18.90;99.90;;;;;;5077739;28;20115;-62
2021/08/13 06:56:13;;;;;;;21.20;15.30;;;19.00;99.90;;;;;;5060874;28;20045;-63
2021/08/13 06:58:38;;;;;;;25.45;15.90;;;19.00;99.90;;;;;;5075984;28;20037;-63
2021/08/13 07:01:04;;;;;;;22.67;15.95;;;19.10;99.90;;;;;;5062451;28;20099;-62
2021/08/13 07:03:30;;;;;;;20.42;15.40;;;19.20;99.90;;;;;;5066273;28;20100;-62
2021/08/13 07:05:56;;;;;;;18.85;14.98;;;19.40;99.90;;;;;;5055935;28;20053;-62
2021/08/13 07:08:21;;;;;;;20.80;15.55;;;19.60;99.90;;;;;;5066757;28;20055;-62
2021/08/13 07:10:47;;;;;;;25.42;15.57;;;19.70;99.90;;;;;;5077060;28;20100;-62
2021/08/13 07:13:13;;;;;;;21.65;13.90;;;19.80;99.90;;;;;;5066352;28;20046;-62
2021/08/13 07:15:39;;;;;;;17.83;13.10;;;19.90;99.90;;;;;;5084464;28;20056;-62
2021/08/13 07:18:04;;;;;;;22.98;14.18;;;20.00;99.90;;;;;;5065949;28;20045;-62
2021/08/13 07:20:31;;;;;;;21.00;15.13;;;20.10;99.90;;;;;;5065253;28;20499;-62
2021/08/13 07:22:57;;;;;;;21.38;14.75;;;20.10;99.90;;;;;;5073500;28;20141;-62
2021/08/13 07:25:23;;;;;;;21.52;14.52;;;20.10;99.90;;;;;;5062007;28;20052;-62
2021/08/13 07:27:49;;;;;;;18.37;13.73;;;20.20;99.90;;;;;;5075519;28;20050;-62
2021/08/13 07:30:16;;;;;;;25.13;14.32;;;20.10;99.90;;;;;;5060399;28;20318;-62
2021/08/13 07:32:44;;;;;;;19.13;13.55;;;20.20;99.90;;;;;;5074029;28;20041;-62
2021/08/13 07:35:10;;;;;;;16.98;11.90;;;20.20;99.90;;;;;;5068122;28;20041;-62
2021/08/13 07:37:36;;;;;;;20.48;14.05;;;20.30;99.90;;;;;;5075427;28;20057;-62
2021/08/13 07:40:03;;;;;;;16.05;12.60;;;20.30;99.90;;;;;;5080937;28;20673;-62
2021/08/13 07:42:29;;;;;;;19.13;13.05;;;20.30;99.90;;;;;;5059246;28;20516;-63
2021/08/13 07:44:56;;;;;;;17.58;12.38;;;20.30;99.90;;;;;;5083252;28;20052;-63
2021/08/13 07:47:22;;;;;;;15.23;11.98;;;20.40;99.90;;;;;;5069297;28;20424;-62
2021/08/13 07:49:47;;;;;;;19.98;12.57;;;20.40;99.90;;;;;;5068444;28;20036;-62
2021/08/13 07:52:13;;;;;;;18.92;12.48;;;20.50;99.90;;;;;;5066686;28;20055;-63
2021/08/13 07:54:39;;;;;;;15.68;11.50;;;20.60;99.90;;;;;;5079762;28;20056;-63
2021/08/13 07:57:05;;;;;;;16.05;12.27;;;20.60;99.90;;;;;;5056114;28;20090;-62
2021/08/13 07:59:33;;;;;;;14.90;12.05;;;20.80;99.90;;;;;;5076498;28;20044;-62
2021/08/13 08:01:59;;;;;;;17.63;12.00;;;20.80;99.90;;;;;;5069273;28;20119;-62
2021/08/13 08:04:24;;;;;;;15.45;11.77;;;20.70;99.90;;;;;;5071718;28;20048;-62
2021/08/13 08:06:55;;;;;;;17.17;11.25;;;20.80;99.90;;;;;;5071757;28;20045;-62
2021/08/13 08:09:21;;;;;;;17.27;11.30;;;20.80;99.90;;;;;;5074879;28;20048;-63
2021/08/13 08:11:46;;;;;;;17.40;11.00;;;20.90;99.90;;;;;;5059919;28;20040;-62
2021/08/13 08:14:12;;;;;;;14.13;10.00;;;20.90;99.90;;;;;;5073244;28;20056;-62
2021/08/13 08:16:38;;;;;;;14.85;10.75;;;20.90;99.90;;;;;;5058380;28;20056;-62
2021/08/13 08:19:04;;;;;;;15.82;11.32;;;21.00;99.90;;;;;;5060961;28;20040;-62
2021/08/13 08:21:30;;;;;;;14.48;10.35;;;21.00;99.90;;;;;;5076772;28;20045;-63
2021/08/13 08:23:55;;;;;;;13.35;10.70;;;21.20;99.90;;;;;;5062237;28;20045;-62
2021/08/13 08:26:21;;;;;;;15.20;10.77;;;21.30;99.90;;;;;;5075752;28;20040;-62
2021/08/13 08:28:47;;;;;;;13.65;9.93;;;21.30;99.90;;;;;;5061841;28;20045;-63
2021/08/13 08:31:13;;;;;;;16.45;10.75;;;21.40;99.90;;;;;;5072978;28;20059;-62
2021/08/13 08:33:39;;;;;;;16.70;10.05;;;21.50;99.90;;;;;;5081455;28;20071;-63
2021/08/13 08:36:05;;;;;;;18.92;11.57;;;21.50;99.90;;;;;;5071941;28;20051;-63
2021/08/13 08:38:31;;;;;;;13.95;10.95;;;21.60;99.90;;;;;;5066735;28;20121;-63
2021/08/13 08:41:02;;;;;;;14.43;10.55;;;21.60;99.90;;;;;;5062145;28;20049;-62
2021/08/13 08:43:28;;;;;;;13.45;10.55;;;21.60;99.90;;;;;;5068205;28;20038;-63
2021/08/13 08:45:55;;;;;;;16.30;10.80;;;21.60;99.90;;;;;;5057733;28;20544;-63
2021/08/13 08:48:21;;;;;;;17.25;12.50;;;21.60;99.90;;;;;;5070874;28;20140;-62
2021/08/13 08:50:47;;;;;;;15.40;10.77;;;21.60;99.90;;;;;;5071209;28;20038;-62
2021/08/13 08:53:23;;;;;;;15.65;10.13;;;21.90;99.90;;;;;;5074130;28;20048;-62
2021/08/13 08:55:49;;;;;;;19.10;11.38;;;21.90;99.90;;;;;;5062883;28;20425;-62
2021/08/13 08:58:17;;;;;;;15.57;10.10;;;21.80;99.90;;;;;;5076491;28;20036;-62
2021/08/13 09:00:44;;;;;;;14.57;10.27;;;21.60;99.90;;;;;;5073162;28;20045;-62
2021/08/13 09:03:11;;;;;;;10.52;8.10;;;21.30;99.90;;;;;;5060922;28;20052;-63
2021/08/13 09:05:37;;;;;;;14.82;8.85;;;21.20;99.90;;;;;;5059472;28;20056;-63
2021/08/13 09:08:02;;;;;;;16.67;9.57;;;21.50;99.90;;;;;;5056032;28;20100;-62
2021/08/13 09:10:28;;;;;;;13.35;9.60;;;21.80;99.90;;;;;;5077041;28;20041;-63
2021/08/13 09:12:54;;;;;;;11.48;8.43;;;21.60;99.90;;;;;;5063935;28;20571;-62
2021/08/13 09:15:30;;;;;;;13.20;9.15;;;21.80;99.90;;;;;;5076433;28;20044;-62
2021/08/13 09:18:17;;;;;;;13.13;8.75;;;21.60;99.90;;;;;;5057538;28;20049;-63
2021/08/13 09:20:57;;;;;;;13.77;9.70;;;21.50;99.90;;;;;;5072896;28;20052;-62
2021/08/13 09:23:30;;;;;;;17.63;9.10;;;21.50;99.90;;;;;;5070640;28;20115;-62
2021/08/13 09:26:14;;;;;;;10.27;8.30;;;21.80;99.90;;;;;;5073676;28;20092;-62
2021/08/13 09:28:44;;;;;;;11.30;8.88;;;21.90;99.90;;;;;;5066454;28;20041;-62
2021/08/13 09:31:24;;;;;;;9.18;7.80;;;21.70;99.90;;;;;;5069799;28;20049;-63
2021/08/13 09:33:52;;;;;;;10.68;8.57;;;21.50;99.90;;;;;;5075317;28;20107;-63
2021/08/13 09:36:21;;;;;;;9.65;7.40;;;21.20;99.90;;;;;;5074307;28;20067;-63
2021/08/13 09:38:49;;;;;;;11.07;7.60;;;21.20;99.90;;;;;;5064858;28;20049;-62
2021/08/13 09:41:17;;;;;;;8.20;7.20;;;21.20;99.90;;;;;;5063589;28;20051;-62
2021/08/13 09:43:54;;;;;;;10.50;8.18;;;21.50;99.90;;;;;;5056009;28;20132;-63
2021/08/13 09:46:20;;;;;;;9.48;6.50;;;21.80;99.90;;;;;;5067876;28;20036;-62
2021/08/13 09:48:46;;;;;;;13.50;6.03;;;21.80;99.90;;;;;;5065163;28;20068;-62
2021/08/13 09:51:32;;;;;;;8.73;5.80;;;21.70;99.90;;;;;;5052987;28;20049;-62
2021/08/13 09:54:08;;;;;;;9.20;6.03;;;21.60;99.90;;;;;;5053514;28;20166;-63
2021/08/13 09:56:36;;;;;;;9.43;5.70;;;21.30;99.90;;;;;;5065114;28;20131;-63
2021/08/13 09:59:09;;;;;;;7.38;4.90;;;21.20;99.90;;;;;;5072295;28;20040;-62
2021/08/13 10:01:37;;;;;;;6.90;4.10;;;21.20;99.90;;;;;;5065050;28;20048;-63
2021/08/13 10:04:05;;;;;;;8.88;4.55;;;21.10;99.90;;;;;;5069624;28;20048;-63
2021/08/13 10:06:31;;;;;;;5.72;3.63;;;21.00;99.90;;;;;;5065624;28;20120;-63
2021/08/13 10:08:57;;;;;;;8.05;3.65;;;21.00;99.90;;;;;;5071084;28;20532;-63
2021/08/13 10:11:23;;;;;;;9.10;3.42;;;21.10;99.90;;;;;;5058561;28;20117;-62
2021/08/13 10:13:49;;;;;;;7.47;4.15;;;21.10;99.90;;;;;;5078105;28;20045;-63
2021/08/13 10:16:26;;;;;;;10.32;4.45;;;21.40;99.90;;;;;;5066960;28;20124;-62
2021/08/13 10:18:56;;;;;;;9.88;4.68;;;21.80;99.90;;;;;;5061886;28;20045;-62
2021/08/13 10:21:23;;;;;;;7.22;4.13;;;21.90;99.90;;;;;;5081585;28;20044;-61
2021/08/13 10:23:51;;;;;;;6.45;4.45;;;22.00;99.90;;;;;;5073342;28;20052;-61
2021/08/13 10:26:20;;;;;;;8.27;4.80;;;21.90;99.90;;;;;;5082003;28;20066;-63
2021/08/13 10:28:48;;;;;;;9.20;4.22;;;22.00;99.90;;;;;;5071716;28;20052;-63
2021/08/13 10:31:18;;;;;;;6.53;4.10;;;21.90;99.90;;;;;;5080061;28;20040;-63
2021/08/13 10:33:52;;;;;;;8.10;4.32;;;22.00;99.90;;;;;;5083398;28;20083;-63
2021/08/13 10:36:19;;;;;;;8.55;4.20;;;22.10;99.90;;;;;;5080692;28;20045;-63
2021/08/13 10:38:50;;;;;;;8.98;4.72;;;22.00;99.90;;;;;;5072152;28;20064;-62
2021/08/13 10:41:24;;;;;;;10.38;4.22;;;22.10;99.90;;;;;;5076466;28;20051;-62
2021/08/13 10:43:54;;;;;;;9.35;4.05;;;22.20;99.90;;;;;;5068092;28;20046;-62
2021/08/13 10:46:21;;;;;;;8.45;3.88;;;22.00;99.90;;;;;;5070318;28;20493;-62
2021/08/13 10:48:51;;;;;;;9.00;3.50;;;22.20;99.90;;;;;;5062183;28;20046;-62
2021/08/13 10:51:28;;;;;;;8.75;4.07;;;22.40;99.90;;;;;;5070524;28;20038;-62
2021/08/13 10:54:09;;;;;;;8.77;3.80;;;22.30;99.90;;;;;;5070134;28;20501;-62
2021/08/13 10:56:39;;;;;;;7.07;3.45;;;22.50;99.90;;;;;;5072067;28;20041;-62
2021/08/13 10:59:05;;;;;;;7.78;3.83;;;22.30;99.90;;;;;;5067626;28;20068;-62
2021/08/13 11:01:31;;;;;;;7.25;3.38;;;22.40;99.90;;;;;;5068061;28;20044;-62
2021/08/13 11:03:57;;;;;;;7.75;3.33;;;22.00;99.90;;;;;;5073027;28;20051;-61
2021/08/13 11:06:38;;;;;;;8.55;3.97;;;21.80;99.90;;;;;;5072102;28;20505;-61
2021/08/13 11:09:04;;;;;;;4.88;3.05;;;21.50;99.90;;;;;;5068800;28;20176;-63
2021/08/13 11:12:04;;;;;;;12.45;3.70;;;21.40;99.90;;;;;;5061646;28;20348;-61
2021/08/13 11:14:46;;;;;;;7.03;3.75;;;21.70;99.90;;;;;;5062959;28;20110;-62
2021/08/13 11:17:32;;;;;;;5.63;3.30;;;22.10;99.90;;;;;;5042871;28;20060;-61
2021/08/13 11:20:01;;;;;;;8.20;4.00;;;22.10;99.90;;;;;;5049566;28;20097;-61
2021/08/13 11:22:34;;;;;;;11.70;3.55;;;22.20;99.90;;;;;;5047101;28;20052;-61
2021/08/13 11:25:01;;;;;;;9.23;4.18;;;22.40;99.90;;;;;;5047263;28;20077;-61
2021/08/13 11:27:26;;;;;;;8.27;2.72;;;22.30;99.90;;;;;;5045988;28;20440;-61
2021/08/13 11:29:52;;;;;;;6.22;2.95;;;22.00;99.90;;;;;;5056364;28;20112;-62
2021/08/13 11:32:29;;;;;;;11.73;4.85;;;21.90;99.90;;;;;;5049193;28;20117;-62
2021/08/13 11:35:07;;;;;;;5.40;2.55;;;22.20;99.90;;;;;;5048109;28;20046;-62
2021/08/13 11:37:37;;;;;;;5.97;2.30;;;21.90;99.90;;;;;;5058686;28;20057;-61
2021/08/13 11:40:12;;;;;;;6.47;2.25;;;21.60;99.90;;;;;;5055107;28;20056;-62
2021/08/13 11:42:48;;;;;;;4.78;2.72;;;21.70;99.90;;;;;;5061641;28;20041;-62
2021/08/13 11:45:15;;;;;;;9.38;2.88;;;21.60;99.90;;;;;;5054017;28;20076;-62
2021/08/13 11:47:49;;;;;;;6.05;2.40;;;21.20;99.90;;;;;;5045373;28;20083;-61
2021/08/13 11:50:17;;;;;;;7.78;2.65;;;21.30;99.90;;;;;;5060888;28;20098;-61
2021/08/13 11:52:51;;;;;;;5.10;2.33;;;21.60;99.90;;;;;;5078853;28;20048;-61
2021/08/13 11:55:25;;;;;;;9.80;2.40;;;21.60;99.90;;;;;;5062869;28;20067;-62
2021/08/13 11:57:53;;;;;;;10.95;2.75;;;21.80;99.90;;;;;;5077643;28;20048;-62
2021/08/13 12:00:18;;;;;;;;;;;22.00;99.90;;;;;;5063750;28;20518;-61
2021/08/13 12:02:44;;;;;;;6.20;2.70;;;21.80;99.90;;;;;;5076438;28;19975;-63
2021/08/13 12:05:12;;;;;;;8.32;2.65;;;21.60;99.90;;;;;;5061409;28;20044;-62
2021/08/13 12:07:39;;;;;;;11.02;3.17;;;21.50;99.90;;;;;;5074771;28;20045;-61
2021/08/13 12:10:15;;;;;;;11.10;3.10;;;21.70;99.90;;;;;;5065052;28;20135;-62
2021/08/13 12:12:43;;;;;;;10.68;2.75;;;21.80;99.90;;;;;;5073393;28;20317;-62
2021/08/13 12:15:10;;;;;;;14.55;2.95;;;21.80;99.90;;;;;;5058535;28;20037;-62
2021/08/13 12:17:37;;;;;;;7.45;2.60;;;21.80;99.90;;;;;;5066663;28;20045;-62
2021/08/13 12:20:06;;;;;;;10.27;3.65;;;21.70;99.90;;;;;;5073596;28;20045;-62
2021/08/13 12:22:36;;;;;;;9.77;3.45;;;22.10;99.90;;;;;;5061958;28;20032;-62
2021/08/13 12:25:05;;;;;;;11.20;2.78;;;22.20;99.90;;;;;;5075968;28;20056;-62
2021/08/13 12:27:32;;;;;;;7.50;2.78;;;22.30;99.90;;;;;;5060911;28;20149;-62
2021/08/13 12:29:59;;;;;;;8.40;2.90;;;21.90;99.90;;;;;;5074504;28;20059;-61
2021/08/13 12:32:39;;;;;;;8.65;3.10;;;21.80;99.90;;;;;;5059612;28;20045;-61
2021/08/13 12:35:08;;;;;;;12.57;3.58;;;22.00;99.90;;;;;;5072642;28;20041;-61
2021/08/13 12:37:33;;;;;;;8.27;2.38;;;22.30;99.90;;;;;;5057163;28;20060;-62
2021/08/13 12:40:01;;;;;;;10.23;3.08;;;22.40;99.90;;;;;;5071131;28;20104;-62